Time;durP1;ratioP1;P1;durP2;ratioP2;P2;SDS_P1;SDS_P2;PMS_P1;PMS_P2;Temp;Humidity;BMP_temperature;BMP_pressure;BME280_temperature;BME280_humidity;BME280_pressure;Samples;Min_cycle;Max_cycle;Signal;HPM_P1;HPM_P2
2022/07/29 00:00:11;;;;;;;1.05;0.20;;;27.60;30.20;;;;;;5046724;28;20048;-59
2022/07/29 00:02:38;;;;;;;2.17;0.55;;;27.60;30.20;;;;;;5046393;28;20045;-59
2022/07/29 00:05:06;;;;;;;1.35;0.22;;;27.60;30.20;;;;;;5046170;28;20382;-60
2022/07/29 00:07:33;;;;;;;1.73;0.10;;;27.60;30.30;;;;;;5046319;28;20106;-56
2022/07/29 00:10:00;;;;;;;5.10;0.20;;;27.60;30.30;;;;;;5039548;28;20130;-57
2022/07/29 00:12:27;;;;;;;2.92;0.20;;;27.60;30.30;;;;;;5044638;28;20515;-59
2022/07/29 00:14:56;;;;;;;2.95;0.20;;;27.50;30.30;;;;;;5045829;28;20549;-59
2022/07/29 00:17:24;;;;;;;3.17;0.10;;;27.50;30.30;;;;;;5048477;28;20130;-59
2022/07/29 00:19:51;;;;;;;0.32;0.32;;;27.50;30.30;;;;;;5049474;28;20045;-59
2022/07/29 00:22:18;;;;;;;0.70;0.15;;;27.50;30.30;;;;;;5049848;28;20126;-60
2022/07/29 00:24:45;;;;;;;3.38;0.52;;;27.50;30.30;;;;;;5048607;28;20041;-59
2022/07/29 00:27:12;;;;;;;0.95;0.10;;;27.50;30.30;;;;;;5049426;28;20136;-58
2022/07/29 00:29:39;;;;;;;1.45;0.22;;;27.50;30.40;;;;;;5049825;28;20411;-58
2022/07/29 00:32:08;;;;;;;1.30;0.82;;;27.40;30.40;;;;;;5049268;28;20449;-59
2022/07/29 00:37:19;;;;;;;0.80;0.13;;;27.40;30.50;;;;;;5049990;28;20053;-57
2022/07/29 00:39:46;;;;;;;0.75;0.10;;;27.40;30.50;;;;;;5044170;28;20142;-59
2022/07/29 00:42:13;;;;;;;1.65;0.10;;;27.40;30.50;;;;;;5048251;28;20601;-58
2022/07/29 00:44:42;;;;;;;1.73;0.10;;;27.30;30.50;;;;;;5049880;28;20044;-59
2022/07/29 00:47:11;;;;;;;0.50;0.10;;;27.30;30.50;;;;;;5042936;28;20048;-60
2022/07/29 00:49:40;;;;;;;0.50;0.50;;;27.40;30.70;;;;;;5047920;28;20048;-60
2022/07/29 00:52:08;;;;;;;0.43;0.20;;;27.30;30.60;;;;;;5048022;28;20045;-59
2022/07/29 00:54:37;;;;;;;0.93;0.50;;;27.30;30.70;;;;;;5049423;28;20037;-60
2022/07/29 00:57:06;;;;;;;0.25;0.22;;;27.30;30.70;;;;;;5048948;28;20041;-60
2022/07/29 00:59:33;;;;;;;1.20;0.10;;;27.30;30.70;;;;;;5049183;28;20055;-60
2022/07/29 01:02:00;;;;;;;0.73;0.43;;;27.30;30.80;;;;;;5049012;28;20128;-59
2022/07/29 01:04:29;;;;;;;2.60;0.28;;;27.20;30.80;;;;;;5048498;28;20049;-59
2022/07/29 01:06:56;;;;;;;3.72;0.15;;;27.30;30.90;;;;;;5049131;28;20070;-57
2022/07/29 01:09:24;;;;;;;0.47;0.30;;;27.20;30.80;;;;;;5048955;28;20051;-59
2022/07/29 01:11:51;;;;;;;3.83;0.20;;;27.20;30.90;;;;;;5041737;28;20102;-59
2022/07/29 01:14:19;;;;;;;0.20;0.10;;;27.20;30.90;;;;;;5048814;28;20059;-57
2022/07/29 01:16:52;;;;;;;0.45;0.15;;;27.20;31.60;;;;;;5048360;28;20037;-59
2022/07/29 01:19:46;;;;;;;0.38;0.20;;;27.20;31.00;;;;;;5048677;28;20549;-58
2022/07/29 01:22:27;;;;;;;0.55;0.13;;;27.20;31.10;;;;;;5048416;28;20499;-56
2022/07/29 01:25:10;;;;;;;2.47;0.10;;;27.20;31.10;;;;;;5048590;28;20057;-59
2022/07/29 01:27:52;;;;;;;1.38;0.10;;;27.10;31.10;;;;;;5042692;28;20565;-59
2022/07/29 01:30:23;;;;;;;3.80;0.25;;;27.10;31.20;;;;;;5045965;28;20511;-59
2022/07/29 01:32:57;;;;;;;0.40;0.40;;;27.10;31.30;;;;;;5048680;28;20049;-59
2022/07/29 01:35:27;;;;;;;1.52;0.30;;;27.10;31.90;;;;;;5048742;28;20130;-59
2022/07/29 01:38:02;;;;;;;5.75;0.22;;;27.10;31.40;;;;;;5048490;28;20387;-59
2022/07/29 01:40:35;;;;;;;2.50;0.10;;;27.10;31.60;;;;;;5048698;28;20122;-59
2022/07/29 01:43:10;;;;;;;2.35;0.20;;;27.00;31.70;;;;;;5047995;28;20041;-59
2022/07/29 01:45:42;;;;;;;1.75;0.20;;;27.00;31.80;;;;;;5042067;28;20041;-60
2022/07/29 01:48:15;;;;;;;1.17;0.20;;;26.90;31.90;;;;;;5042880;28;20060;-60
2022/07/29 01:50:48;;;;;;;2.15;0.20;;;27.00;32.10;;;;;;5048328;28;20128;-59
2022/07/29 01:53:22;;;;;;;4.07;0.77;;;26.90;32.20;;;;;;5048298;28;20048;-59
2022/07/29 01:55:50;;;;;;;2.33;0.55;;;26.90;32.30;;;;;;5048332;28;20541;-59
2022/07/29 01:58:19;;;;;;;1.95;0.30;;;26.90;32.40;;;;;;5048542;28;20059;-59
2022/07/29 02:00:49;;;;;;;0.43;0.40;;;26.90;32.50;;;;;;5048369;28;20083;-60
2022/07/29 02:03:18;;;;;;;1.52;0.10;;;26.90;32.60;;;;;;5046677;28;20044;-59
2022/07/29 02:05:47;;;;;;;0.98;0.35;;;26.90;32.70;;;;;;5047957;28;20045;-59
2022/07/29 02:08:16;;;;;;;1.52;0.20;;;26.80;32.70;;;;;;5048284;28;20144;-58
2022/07/29 02:10:44;;;;;;;1.58;0.20;;;26.80;32.70;;;;;;5048134;28;20033;-56
2022/07/29 02:13:14;;;;;;;1.33;0.30;;;26.80;32.80;;;;;;5043916;28;20095;-58
2022/07/29 02:15:43;;;;;;;1.55;0.25;;;26.80;32.80;;;;;;5045385;28;20052;-59
2022/07/29 02:18:19;;;;;;;0.50;0.20;;;26.80;32.90;;;;;;5048092;28;20060;-59
2022/07/29 02:20:49;;;;;;;3.00;0.68;;;26.80;32.90;;;;;;5046253;28;20515;-56
2022/07/29 02:23:19;;;;;;;0.25;0.20;;;26.70;33.00;;;;;;5045189;28;20102;-58
2022/07/29 02:25:50;;;;;;;1.48;0.20;;;26.70;33.00;;;;;;5046679;28;20294;-59
2022/07/29 02:28:18;;;;;;;3.10;0.50;;;26.70;33.10;;;;;;5046843;28;20110;-59
2022/07/29 02:30:47;;;;;;;1.00;0.55;;;26.70;33.20;;;;;;5041354;28;20072;-60
2022/07/29 02:33:18;;;;;;;2.08;0.20;;;26.70;33.20;;;;;;5041446;28;20061;-60
2022/07/29 02:35:47;;;;;;;5.25;0.43;;;26.70;33.30;;;;;;5041736;28;20049;-59
2022/07/29 02:41:04;;;;;;;0.35;0.20;;;26.60;33.30;;;;;;5047829;28;20142;-58
2022/07/29 02:43:32;;;;;;;2.20;0.20;;;26.60;33.40;;;;;;5046965;28;20041;-58
2022/07/29 02:46:01;;;;;;;0.65;0.20;;;26.60;33.40;;;;;;5047538;28;20045;-59
2022/07/29 02:48:38;;;;;;;0.57;0.35;;;26.50;33.40;;;;;;5046946;28;20045;-60
2022/07/29 02:51:12;;;;;;;0.38;0.30;;;26.50;33.50;;;;;;5047122;28;20045;-60
2022/07/29 02:53:42;;;;;;;0.63;0.43;;;26.50;33.50;;;;;;5047247;28;20115;-60
2022/07/29 02:56:13;;;;;;;0.57;0.20;;;26.50;33.60;;;;;;5040630;28;20045;-59
2022/07/29 02:58:46;;;;;;;1.73;0.17;;;26.50;33.70;;;;;;5040429;28;20103;-59
2022/07/29 03:01:17;;;;;;;1.90;0.20;;;26.50;33.70;;;;;;5034731;28;20131;-59
2022/07/29 03:03:47;;;;;;;2.60;0.17;;;26.40;33.70;;;;;;5046641;28;20471;-59
2022/07/29 03:06:17;;;;;;;0.95;0.63;;;26.40;33.70;;;;;;5046552;28;20073;-59
2022/07/29 03:08:46;;;;;;;1.67;0.20;;;26.40;33.80;;;;;;5046535;28;20036;-59
2022/07/29 03:11:14;;;;;;;1.10;0.57;;;26.40;33.90;;;;;;5046682;28;20148;-59
2022/07/29 03:13:42;;;;;;;1.95;0.20;;;26.30;33.90;;;;;;5045969;28;20068;-59
2022/07/29 03:16:10;;;;;;;5.28;0.30;;;26.30;34.10;;;;;;5046850;28;20136;-59
2022/07/29 03:18:38;;;;;;;0.93;0.30;;;26.30;34.20;;;;;;5046494;28;20511;-58
2022/07/29 03:21:06;;;;;;;1.77;0.20;;;26.30;34.30;;;;;;5046279;28;20041;-58
2022/07/29 03:23:34;;;;;;;4.85;0.22;;;26.30;34.40;;;;;;5046457;28;20055;-58
2022/07/29 03:26:01;;;;;;;1.55;0.10;;;26.20;34.40;;;;;;5039312;28;20128;-57
2022/07/29 03:28:28;;;;;;;3.58;0.30;;;26.30;34.50;;;;;;5046110;28;20069;-57
2022/07/29 03:30:55;;;;;;;2.15;0.20;;;26.30;34.60;;;;;;5046485;28;20039;-57
2022/07/29 03:33:22;;;;;;;2.80;0.25;;;26.20;34.60;;;;;;5039210;28;20128;-57
2022/07/29 03:35:49;;;;;;;4.32;0.20;;;26.20;34.60;;;;;;5043585;28;20139;-57
2022/07/29 03:38:18;;;;;;;1.30;0.20;;;26.20;34.70;;;;;;5046051;28;20045;-58
2022/07/29 03:40:49;;;;;;;1.13;0.10;;;26.20;34.80;;;;;;5045653;28;20632;-57
2022/07/29 03:43:19;;;;;;;1.90;0.38;;;26.10;34.70;;;;;;5045630;28;20048;-58
2022/07/29 03:45:50;;;;;;;0.45;0.15;;;26.20;34.90;;;;;;5044619;28;20514;-57
2022/07/29 03:48:20;;;;;;;0.22;0.17;;;26.10;34.90;;;;;;5044642;28;20132;-57
2022/07/29 03:50:48;;;;;;;1.40;0.22;;;26.10;34.90;;;;;;5045760;28;20052;-59
2022/07/29 03:53:15;;;;;;;2.63;0.43;;;26.10;35.00;;;;;;5049772;28;20465;-58
2022/07/29 03:55:46;;;;;;;1.30;0.35;;;26.10;35.00;;;;;;5047963;28;20072;-57
2022/07/29 03:58:14;;;;;;;0.60;0.40;;;26.10;35.10;;;;;;5049587;28;20064;-58
2022/07/29 04:00:42;;;;;;;1.77;0.40;;;26.10;35.10;;;;;;5049812;28;20051;-58
2022/07/29 04:03:10;;;;;;;4.30;0.35;;;26.10;35.20;;;;;;5049932;28;20037;-58
2022/07/29 04:05:37;;;;;;;1.63;0.20;;;26.10;35.20;;;;;;5049250;28;20049;-58
2022/07/29 04:08:04;;;;;;;1.85;0.20;;;26.00;35.10;;;;;;5049779;28;20116;-58
2022/07/29 04:10:31;;;;;;;1.55;0.10;;;26.00;35.20;;;;;;5049850;28;20442;-58
2022/07/29 04:13:00;;;;;;;4.10;0.20;;;26.00;35.20;;;;;;5049696;28;20537;-58
2022/07/29 04:15:28;;;;;;;4.88;0.38;;;26.00;35.30;;;;;;5047511;28;20081;-58
2022/07/29 04:17:55;;;;;;;3.08;0.22;;;26.00;35.30;;;;;;5049231;28;20048;-58
2022/07/29 04:20:22;;;;;;;1.20;0.43;;;26.00;35.40;;;;;;5049095;28;20059;-58
2022/07/29 04:22:49;;;;;;;0.85;0.10;;;26.00;36.00;;;;;;5049701;28;20044;-58
2022/07/29 04:25:17;;;;;;;0.52;0.10;;;26.00;35.40;;;;;;5049105;28;20590;-58
2022/07/29 04:30:26;;;;;;;2.10;0.17;;;25.90;35.40;;;;;;5047703;28;20045;-58
2022/07/29 04:32:53;;;;;;;5.35;0.20;;;25.90;35.50;;;;;;5047790;28;20804;-57
2022/07/29 04:35:21;;;;;;;0.65;0.63;;;25.90;35.60;;;;;;5049126;28;20064;-58
2022/07/29 04:37:48;;;;;;;2.20;0.60;;;25.80;35.50;;;;;;5048680;28;20391;-58
2022/07/29 04:40:15;;;;;;;3.17;0.20;;;25.90;35.60;;;;;;5048768;28;20106;-58
2022/07/29 04:42:42;;;;;;;1.15;0.20;;;25.80;35.60;;;;;;5048941;28;20137;-59
2022/07/29 04:45:10;;;;;;;0.80;0.32;;;25.80;35.60;;;;;;5048641;28;20091;-58
2022/07/29 04:47:38;;;;;;;0.88;0.10;;;25.80;35.70;;;;;;5048645;28;20536;-59
2022/07/29 04:50:06;;;;;;;5.10;0.68;;;25.80;35.70;;;;;;5048595;28;20103;-60
2022/07/29 04:52:34;;;;;;;2.67;0.40;;;25.80;35.70;;;;;;5043504;28;20084;-59
2022/07/29 04:55:01;;;;;;;2.17;0.22;;;25.80;35.80;;;;;;5046808;28;20049;-59
2022/07/29 04:57:28;;;;;;;1.00;0.28;;;25.70;35.70;;;;;;5048506;28;20029;-59
2022/07/29 04:59:55;;;;;;;1.63;0.57;;;25.80;35.80;;;;;;5048669;28;20051;-59
2022/07/29 05:02:22;;;;;;;2.03;0.40;;;25.70;35.80;;;;;;5048216;28;20364;-61
2022/07/29 05:04:51;;;;;;;2.15;0.30;;;25.70;35.80;;;;;;5047587;28;20396;-60
2022/07/29 05:07:18;;;;;;;0.70;0.25;;;25.70;35.90;;;;;;5047678;28;20086;-59
2022/07/29 05:09:45;;;;;;;0.80;0.20;;;25.70;35.90;;;;;;5046984;28;20045;-59
2022/07/29 05:12:12;;;;;;;0.93;0.20;;;25.70;35.90;;;;;;5048171;28;20530;-59
2022/07/29 05:14:39;;;;;;;0.60;0.10;;;25.70;35.90;;;;;;5048454;28;20148;-60
2022/07/29 05:17:06;;;;;;;0.52;0.30;;;25.70;35.90;;;;;;5048469;28;20107;-59
2022/07/29 05:19:33;;;;;;;0.65;0.20;;;25.70;36.00;;;;;;5048621;28;20472;-58
2022/07/29 05:22:01;;;;;;;3.30;0.30;;;25.70;36.00;;;;;;5041447;28;20049;-58
2022/07/29 05:24:28;;;;;;;4.60;0.38;;;25.70;36.00;;;;;;5048624;28;20056;-58
2022/07/29 05:26:55;;;;;;;1.88;0.20;;;25.70;36.10;;;;;;5047762;28;20037;-58
2022/07/29 05:29:22;;;;;;;2.15;0.17;;;25.70;36.00;;;;;;5048111;28;20518;-58
2022/07/29 05:31:51;;;;;;;2.08;0.40;;;25.70;36.10;;;;;;5048280;28;20080;-58
2022/07/29 05:34:18;;;;;;;2.28;0.43;;;25.70;36.00;;;;;;5044535;28;20065;-57
2022/07/29 05:36:45;;;;;;;0.88;0.38;;;25.70;36.10;;;;;;5047701;28;20068;-58
2022/07/29 05:39:14;;;;;;;3.67;0.65;;;25.70;36.00;;;;;;5047528;28;20416;-59
2022/07/29 05:41:41;;;;;;;6.88;0.50;;;25.70;36.00;;;;;;5047860;28;20111;-59
2022/07/29 05:44:08;;;;;;;3.63;0.43;;;25.80;35.90;;;;;;5047725;28;20140;-59
2022/07/29 05:46:35;;;;;;;5.90;0.40;;;25.80;35.80;;;;;;5041141;28;20069;-60
2022/07/29 05:49:03;;;;;;;2.47;0.50;;;25.80;35.70;;;;;;5047680;28;20045;-58
2022/07/29 05:51:30;;;;;;;2.58;0.28;;;25.80;35.60;;;;;;5047251;28;20052;-59
2022/07/29 05:53:57;;;;;;;0.73;0.35;;;25.70;35.40;;;;;;5047651;28;20457;-59
2022/07/29 05:56:26;;;;;;;2.70;0.30;;;25.80;35.40;;;;;;5047521;28;20045;-60
2022/07/29 05:58:53;;;;;;;0.82;0.20;;;25.70;35.30;;;;;;5047435;28;20051;-57
2022/07/29 06:01:20;;;;;;;4.97;0.30;;;25.80;35.40;;;;;;5047047;28;20392;-58
2022/07/29 06:03:47;;;;;;;0.10;0.10;;;25.80;35.20;;;;;;5047468;28;21100;-59
2022/07/29 06:06:14;;;;;;;3.40;0.30;;;25.80;35.20;;;;;;5046844;28;20507;-59
2022/07/29 06:08:41;;;;;;;2.35;0.20;;;25.70;35.10;;;;;;5047383;28;20090;-59
2022/07/29 06:11:09;;;;;;;5.43;0.32;;;25.80;35.20;;;;;;5047340;28;20051;-59
2022/07/29 06:13:37;;;;;;;2.80;0.30;;;25.80;35.20;;;;;;5047472;28;20056;-59
2022/07/29 06:16:05;;;;;;;4.15;0.20;;;25.80;35.20;;;;;;5047229;28;20047;-59
2022/07/29 06:18:32;;;;;;;5.97;0.38;;;25.70;35.20;;;;;;5045614;28;20127;-59
2022/07/29 06:20:59;;;;;;;0.38;0.32;;;25.80;35.20;;;;;;5046693;28;20052;-59
2022/07/29 06:23:26;;;;;;;1.83;0.50;;;25.80;35.20;;;;;;5047119;28;20570;-59
2022/07/29 06:25:53;;;;;;;1.80;0.50;;;25.80;35.20;;;;;;5047180;28;20453;-58
2022/07/29 06:28:20;;;;;;;2.33;0.20;;;25.80;35.30;;;;;;5047106;28;20899;-59
2022/07/29 06:30:49;;;;;;;0.98;0.10;;;25.80;35.30;;;;;;5047255;28;20045;-59
2022/07/29 06:33:19;;;;;;;0.60;0.20;;;25.80;35.30;;;;;;5047326;28;20041;-59
2022/07/29 06:35:47;;;;;;;7.85;0.52;;;25.80;35.20;;;;;;5046730;28;20037;-59
2022/07/29 06:38:14;;;;;;;2.15;0.20;;;25.80;35.20;;;;;;5047486;28;20044;-59
2022/07/29 06:41:04;;;;;;;2.85;0.65;;;25.80;35.20;;;;;;5047218;28;20457;-59
2022/07/29 06:43:35;;;;;;;4.75;0.50;;;25.80;35.20;;;;;;5046904;28;20503;-58
2022/07/29 06:46:06;;;;;;;6.32;0.65;;;25.80;35.30;;;;;;5040390;28;20047;-58
2022/07/29 06:48:34;;;;;;;3.40;0.60;;;25.80;35.30;;;;;;5040301;28;20045;-61
2022/07/29 06:51:01;;;;;;;3.47;0.30;;;25.80;35.30;;;;;;5045473;28;20529;-59
2022/07/29 06:53:28;;;;;;;2.00;0.60;;;25.80;35.30;;;;;;5047072;28;20178;-60
2022/07/29 06:55:56;;;;;;;4.90;0.40;;;25.80;35.20;;;;;;5044228;28;20040;-60
2022/07/29 06:58:23;;;;;;;2.80;0.35;;;25.80;35.20;;;;;;5046744;28;20075;-60
2022/07/29 07:00:56;;;;;;;2.08;0.30;;;25.90;35.20;;;;;;5046734;28;20044;-59
2022/07/29 07:03:26;;;;;;;0.95;0.10;;;25.90;35.10;;;;;;5046419;28;20083;-60
2022/07/29 07:05:54;;;;;;;2.50;0.38;;;25.90;35.10;;;;;;5046422;28;20044;-60
2022/07/29 07:08:23;;;;;;;7.22;0.22;;;25.90;35.00;;;;;;5046577;28;20041;-59
2022/07/29 07:10:50;;;;;;;1.63;0.10;;;25.90;35.00;;;;;;5046863;28;20079;-60
2022/07/29 07:13:18;;;;;;;1.98;0.52;;;25.90;34.90;;;;;;5046344;28;20055;-60
2022/07/29 07:15:45;;;;;;;0.68;0.35;;;25.90;34.80;;;;;;5046793;28;20045;-60
2022/07/29 07:18:12;;;;;;;5.95;0.50;;;25.90;34.80;;;;;;5045409;28;20147;-59
2022/07/29 07:20:40;;;;;;;5.63;0.45;;;25.90;34.70;;;;;;5046059;28;20747;-59
2022/07/29 07:23:08;;;;;;;0.80;0.50;;;25.90;34.60;;;;;;5046674;28;20057;-59
2022/07/29 07:25:35;;;;;;;5.07;0.10;;;25.90;34.60;;;;;;5046403;28;20041;-59
2022/07/29 07:28:02;;;;;;;8.85;0.35;;;25.90;34.50;;;;;;5045703;28;20087;-59
2022/07/29 07:30:29;;;;;;;2.35;0.45;;;25.90;34.50;;;;;;5046405;28;20041;-59
2022/07/29 07:32:56;;;;;;;2.15;0.43;;;25.90;34.50;;;;;;5046032;28;20163;-60
2022/07/29 07:35:24;;;;;;;2.13;0.38;;;26.00;34.60;;;;;;5046074;28;20709;-59
2022/07/29 07:37:52;;;;;;;4.28;0.50;;;26.00;34.70;;;;;;5043695;28;20064;-59
2022/07/29 07:40:19;;;;;;;2.78;0.52;;;26.00;34.80;;;;;;5046379;28;20132;-60
2022/07/29 07:42:46;;;;;;;2.85;0.77;;;26.00;34.80;;;;;;5045826;28;20068;-60
2022/07/29 07:45:13;;;;;;;3.80;0.47;;;26.00;34.90;;;;;;5046419;28;20043;-60
2022/07/29 07:47:40;;;;;;;4.47;0.50;;;26.00;34.90;;;;;;5046108;28;20507;-59
2022/07/29 07:50:09;;;;;;;1.15;0.40;;;26.10;35.00;;;;;;5046110;28;20041;-60
2022/07/29 07:52:47;;;;;;;3.33;0.40;;;26.00;35.00;;;;;;5045704;28;20128;-59
2022/07/29 07:55:15;;;;;;;3.35;0.20;;;26.10;35.10;;;;;;5045420;28;20124;-60
2022/07/29 07:57:42;;;;;;;4.00;0.55;;;26.10;35.20;;;;;;5045958;28;20036;-59
2022/07/29 08:00:11;;;;;;;2.95;0.50;;;26.10;35.20;;;;;;5046156;28;20053;-59
2022/07/29 08:02:42;;;;;;;3.75;0.28;;;26.10;35.30;;;;;;5045847;28;20052;-59
2022/07/29 08:05:11;;;;;;;2.08;0.77;;;26.20;35.40;;;;;;5045442;28;20238;-58
2022/07/29 08:07:38;;;;;;;2.45;0.20;;;26.20;35.40;;;;;;5046048;28;20501;-59
2022/07/29 08:10:06;;;;;;;5.05;0.47;;;26.20;35.40;;;;;;5046169;28;20079;-59
2022/07/29 08:12:34;;;;;;;2.05;0.52;;;26.20;35.40;;;;;;5046083;28;20075;-59
2022/07/29 08:15:01;;;;;;;4.15;1.25;;;26.30;35.50;;;;;;5045902;28;20045;-59
2022/07/29 08:17:28;;;;;;;5.47;0.10;;;26.20;36.10;;;;;;5046038;28;20073;-60
2022/07/29 08:19:55;;;;;;;5.85;0.25;;;26.30;35.50;;;;;;5045218;28;20793;-60
2022/07/29 08:22:22;;;;;;;3.72;0.70;;;26.30;35.50;;;;;;5046004;28;20056;-60
2022/07/29 08:24:54;;;;;;;1.77;0.25;;;26.40;35.50;;;;;;5046580;28;20403;-59
2022/07/29 08:27:21;;;;;;;3.10;0.30;;;26.40;35.40;;;;;;5046427;28;20041;-59
2022/07/29 08:29:49;;;;;;;5.13;0.10;;;26.40;35.40;;;;;;5046706;28;20041;-59
2022/07/29 08:32:16;;;;;;;0.38;0.38;;;26.40;35.30;;;;;;5045993;28;20051;-59
2022/07/29 08:34:45;;;;;;;4.22;0.10;;;26.50;35.40;;;;;;5044862;28;20143;-59
2022/07/29 08:37:13;;;;;;;2.63;0.10;;;26.50;35.20;;;;;;5046003;28;20052;-59
2022/07/29 08:39:40;;;;;;;0.98;0.10;;;26.50;34.90;;;;;;5049964;28;20530;-58
2022/07/29 08:42:09;;;;;;;1.83;0.35;;;26.50;34.60;;;;;;5049922;28;20123;-59
2022/07/29 08:44:37;;;;;;;0.60;0.50;;;26.60;34.50;;;;;;5050009;28;20044;-59
2022/07/29 08:47:05;;;;;;;1.00;0.30;;;26.60;34.30;;;;;;5049483;28;20049;-59
2022/07/29 08:49:35;;;;;;;1.65;0.20;;;26.60;34.30;;;;;;5049664;28;20041;-58
2022/07/29 08:52:03;;;;;;;1.85;0.47;;;26.60;34.00;;;;;;5049286;28;20045;-59
2022/07/29 08:54:30;;;;;;;1.13;0.20;;;26.60;34.00;;;;;;5049811;28;20126;-58
2022/07/29 08:56:59;;;;;;;5.28;0.10;;;26.70;34.10;;;;;;5049944;28;20033;-55
2022/07/29 08:59:28;;;;;;;6.38;0.10;;;26.70;33.90;;;;;;5049585;28;20671;-57
2022/07/29 09:01:59;;;;;;;1.83;0.35;;;26.70;34.00;;;;;;5048661;28;20053;-59
2022/07/29 09:04:30;;;;;;;2.97;0.20;;;26.80;34.00;;;;;;5049350;28;20499;-59
2022/07/29 09:07:01;;;;;;;2.65;0.22;;;26.70;33.70;;;;;;5049519;28;20076;-58
2022/07/29 09:09:28;;;;;;;2.03;0.10;;;26.80;33.60;;;;;;5049350;28;20112;-56
2022/07/29 09:11:55;;;;;;;5.43;0.20;;;26.80;33.60;;;;;;5049234;28;20033;-58
2022/07/29 09:14:22;;;;;;;1.85;0.85;;;26.80;33.60;;;;;;5049101;28;20049;-58
2022/07/29 09:16:53;;;;;;;1.73;0.17;;;26.90;33.60;;;;;;5049555;28;20053;-57
2022/07/29 09:19:29;;;;;;;6.22;0.10;;;26.90;33.60;;;;;;5049317;28;20037;-57
2022/07/29 09:22:01;;;;;;;0.70;0.10;;;26.90;33.40;;;;;;5048787;28;20048;-58
2022/07/29 09:24:42;;;;;;;2.30;0.30;;;27.00;33.40;;;;;;5049690;28;20466;-56
2022/07/29 09:27:12;;;;;;;9.55;0.50;;;27.00;33.30;;;;;;5044783;28;20507;-55
2022/07/29 09:29:39;;;;;;;0.77;0.10;;;27.00;33.30;;;;;;5048986;28;20041;-56
2022/07/29 09:32:10;;;;;;;2.78;0.10;;;27.00;33.30;;;;;;5049300;28;20068;-57
2022/07/29 09:34:38;;;;;;;0.93;0.40;;;27.00;33.20;;;;;;5049184;28;20048;-57
2022/07/29 09:37:06;;;;;;;0.75;0.10;;;27.00;33.20;;;;;;5046894;28;20037;-56
2022/07/29 09:39:36;;;;;;;5.72;0.10;;;27.10;33.30;;;;;;5048823;28;20525;-57
2022/07/29 09:42:05;;;;;;;1.35;0.30;;;27.10;33.30;;;;;;5046470;28;20140;-56
2022/07/29 09:44:46;;;;;;;3.42;0.20;;;27.10;33.30;;;;;;5048566;28;20055;-56
2022/07/29 09:47:13;;;;;;;10.50;0.30;;;27.20;33.30;;;;;;5048726;28;20045;-56
2022/07/29 09:50:03;;;;;;;5.22;0.20;;;27.20;33.90;;;;;;5048260;28;20128;-56
2022/07/29 09:52:31;;;;;;;1.85;0.10;;;27.20;33.10;;;;;;5042242;28;20069;-58
2022/07/29 09:55:06;;;;;;;2.75;0.20;;;27.20;33.10;;;;;;5047221;28;20040;-56
2022/07/29 09:57:33;;;;;;;1.85;0.10;;;27.30;33.20;;;;;;5040798;28;20116;-59
2022/07/29 10:00:02;;;;;;;2.13;0.20;;;27.30;33.20;;;;;;5045443;28;20124;-56
2022/07/29 10:02:40;;;;;;;7.78;0.73;;;27.30;33.10;;;;;;5045794;28;20041;-56
2022/07/29 10:05:19;;;;;;;2.63;0.32;;;27.30;33.20;;;;;;5045490;28;20040;-55
2022/07/29 10:07:48;;;;;;;4.65;0.20;;;27.40;33.20;;;;;;5047000;28;20041;-59
2022/07/29 10:10:21;;;;;;;0.73;0.10;;;27.40;33.20;;;;;;5036549;28;20038;-51
2022/07/29 10:12:54;;;;;;;0.85;0.20;;;27.40;33.20;;;;;;5042564;28;20221;-53
2022/07/29 10:15:23;;;;;;;0.20;0.10;;;27.50;33.20;;;;;;5039577;28;20037;-55
2022/07/29 10:17:52;;;;;;;4.95;0.55;;;27.70;33.30;;;;;;5041377;28;20103;-56
2022/07/29 10:20:21;;;;;;;2.92;0.10;;;28.00;32.90;;;;;;5042930;28;20098;-56
2022/07/29 10:22:49;;;;;;;3.05;0.10;;;28.50;32.70;;;;;;5043146;28;20053;-55
2022/07/29 10:25:17;;;;;;;4.22;0.10;;;29.00;32.10;;;;;;5043871;28;20045;-60
2022/07/29 10:27:45;;;;;;;0.43;0.10;;;29.60;32.00;;;;;;5041336;28;20057;-59
2022/07/29 10:30:13;;;;;;;1.55;0.10;;;30.10;30.60;;;;;;5042630;28;20075;-59
2022/07/29 10:32:59;;;;;;;4.05;0.10;;;30.60;30.00;;;;;;5043509;28;20130;-61
2022/07/29 10:35:52;;;;;;;0.35;0.10;;;31.20;29.60;;;;;;5040427;28;20040;-62
2022/07/29 10:38:43;;;;;;;0.32;0.10;;;31.80;29.20;;;;;;5039535;28;20043;-61
2022/07/29 10:41:28;;;;;;;0.73;0.10;;;32.30;28.80;;;;;;5039955;28;20045;-61
2022/07/29 10:43:58;;;;;;;3.00;0.10;;;32.70;28.50;;;;;;5042363;28;20045;-60
2022/07/29 10:46:26;;;;;;;2.47;0.10;;;33.20;28.20;;;;;;5042147;28;20037;-62
2022/07/29 10:49:10;;;;;;;2.35;0.40;;;33.60;28.00;;;;;;5040048;28;20856;-61
2022/07/29 10:52:10;;;;;;;3.40;0.20;;;34.00;27.70;;;;;;5042481;28;20049;-59
2022/07/29 10:54:50;;;;;;;0.10;0.10;;;34.50;27.50;;;;;;5017715;28;20133;-59
2022/07/29 10:57:20;;;;;;;3.13;0.77;;;34.80;27.30;;;;;;5017507;28;20049;-58
2022/07/29 10:59:48;;;;;;;2.00;0.10;;;35.10;26.90;;;;;;5017744;28;20049;-58
2022/07/29 11:02:44;;;;;;;0.28;0.10;;;35.40;26.50;;;;;;5013339;28;20056;-60
2022/07/29 11:05:13;;;;;;;0.47;0.10;;;35.80;26.40;;;;;;5019238;28;20064;-61
2022/07/29 11:08:21;;;;;;;1.40;0.10;;;36.10;26.40;;;;;;5009377;28;20057;-58
2022/07/29 11:10:49;;;;;;;8.30;0.50;;;36.40;26.30;;;;;;5019169;28;20172;-56
2022/07/29 11:13:46;;;;;;;1.38;0.10;;;36.60;26.20;;;;;;5002437;28;20107;-56
2022/07/29 11:16:13;;;;;;;0.63;0.17;;;36.90;26.00;;;;;;5012995;28;20068;-57
2022/07/29 11:19:14;;;;;;;2.83;0.25;;;37.10;25.90;;;;;;5015466;28;20088;-56
2022/07/29 11:21:42;;;;;;;0.20;0.20;;;37.30;25.80;;;;;;5017860;28;20766;-59
2022/07/29 11:24:15;;;;;;;2.97;0.20;;;37.50;26.20;;;;;;5011996;28;20083;-62
2022/07/29 11:26:43;;;;;;;0.20;0.20;;;37.60;25.60;;;;;;5019172;28;20073;-59
2022/07/29 11:29:20;;;;;;;0.47;0.10;;;37.80;25.50;;;;;;5030939;28;20045;-54
2022/07/29 11:31:51;;;;;;;3.47;0.30;;;37.90;25.80;;;;;;5041316;28;20511;-59
2022/07/29 11:34:20;;;;;;;2.20;0.22;;;38.00;25.70;;;;;;5040765;28;20041;-55
2022/07/29 11:37:16;;;;;;;1.35;0.10;;;37.80;25.10;;;;;;5042532;28;20047;-51
2022/07/29 11:39:46;;;;;;;1.38;0.60;;;37.70;25.30;;;;;;5039295;28;20129;-55
2022/07/29 11:42:45;;;;;;;2.00;0.22;;;37.40;25.40;;;;;;5041223;28;20270;-53
2022/07/29 11:45:22;;;;;;;0.82;0.20;;;37.20;25.60;;;;;;5039615;28;20507;-56
2022/07/29 11:47:53;;;;;;;2.40;0.20;;;36.90;25.70;;;;;;5037129;28;20126;-61
2022/07/29 11:50:34;;;;;;;4.35;0.60;;;36.70;25.90;;;;;;5040343;28;20044;-61
2022/07/29 11:53:03;;;;;;;2.60;0.10;;;36.40;25.90;;;;;;5041486;28;20055;-61
2022/07/29 11:55:35;;;;;;;0.85;0.13;;;36.20;26.00;;;;;;5038462;28;20124;-58
2022/07/29 11:58:02;;;;;;;3.13;0.10;;;36.00;26.10;;;;;;5037084;28;20470;-59
2022/07/29 12:00:32;;;;;;;2.05;0.20;;;35.80;26.30;;;;;;5042152;28;20091;-53
2022/07/29 12:03:01;;;;;;;5.18;0.30;;;35.70;26.50;;;;;;5038631;28;20095;-51
2022/07/29 12:05:33;;;;;;;1.75;0.15;;;35.60;26.70;;;;;;5043736;28;20041;-53
2022/07/29 12:08:10;;;;;;;0.45;0.45;;;35.40;26.90;;;;;;5038274;28;20074;-52
2022/07/29 12:10:39;;;;;;;2.78;0.10;;;35.30;27.00;;;;;;5038554;28;20055;-55
2022/07/29 12:13:06;;;;;;;0.50;0.10;;;35.20;27.10;;;;;;5042231;28;20518;-50
2022/07/29 12:15:33;;;;;;;0.30;0.10;;;35.00;27.00;;;;;;5046707;28;20132;-53
2022/07/29 12:18:09;;;;;;;0.75;0.30;;;34.90;27.10;;;;;;5043775;28;20040;-53
2022/07/29 12:20:36;;;;;;;4.80;0.10;;;34.80;27.10;;;;;;5041527;28;20126;-53
2022/07/29 12:23:07;;;;;;;2.65;0.10;;;34.80;27.30;;;;;;5044328;28;20033;-54
2022/07/29 12:25:36;;;;;;;2.92;1.23;;;34.70;27.30;;;;;;5045186;28;20147;-52
2022/07/29 12:28:07;;;;;;;1.40;0.20;;;34.60;27.30;;;;;;5042306;28;20063;-56
2022/07/29 12:30:43;;;;;;;0.30;0.30;;;34.60;27.60;;;;;;5042201;28;20045;-64
2022/07/29 12:33:15;;;;;;;0.45;0.10;;;34.60;27.60;;;;;;5045657;28;20084;-62
2022/07/29 12:35:45;;;;;;;0.43;0.20;;;34.50;27.60;;;;;;5045021;28;20072;-65
2022/07/29 12:38:13;;;;;;;0.20;0.10;;;34.30;27.60;;;;;;5040631;28;20056;-64
2022/07/29 12:40:40;;;;;;;8.38;0.22;;;34.30;27.90;;;;;;5044217;28;20060;-53
2022/07/29 12:43:10;;;;;;;5.05;0.10;;;34.20;27.90;;;;;;5044196;28;20099;-54
2022/07/29 12:45:39;;;;;;;1.83;0.40;;;34.20;27.80;;;;;;5041228;28;20068;-55
2022/07/29 12:48:08;;;;;;;0.50;0.10;;;34.10;27.80;;;;;;5041369;28;20526;-61
2022/07/29 12:50:36;;;;;;;0.95;0.10;;;34.10;28.00;;;;;;5049935;28;20151;-61
2022/07/29 12:53:11;;;;;;;0.10;0.10;;;34.10;27.90;;;;;;5046625;28;20170;-63
2022/07/29 12:55:42;;;;;;;6.47;0.10;;;34.00;27.90;;;;;;5044187;28;20052;-60
2022/07/29 12:58:11;;;;;;;1.92;0.10;;;34.10;28.00;;;;;;5041616;28;20041;-62
2022/07/29 13:00:38;;;;;;;9.73;0.28;;;34.00;28.00;;;;;;5044223;28;20056;-61
2022/07/29 13:03:05;;;;;;;0.90;0.20;;;34.00;28.20;;;;;;5044754;28;20162;-61
2022/07/29 13:05:43;;;;;;;0.45;0.10;;;33.90;28.20;;;;;;5045724;28;20084;-52
2022/07/29 13:08:12;;;;;;;0.82;0.10;;;34.00;28.20;;;;;;5040028;28;20041;-55
2022/07/29 13:10:39;;;;;;;0.38;0.10;;;34.00;28.30;;;;;;5043994;28;20037;-57